createdAt,value
2023-06-10T00:01:13.753Z,96.18
2023-06-10T00:03:40.765Z,95.64
2023-06-10T00:06:08.146Z,95.46
2023-06-10T00:08:35.015Z,96.52
2023-06-10T00:11:01.885Z,95.65
2023-06-10T00:13:29.617Z,95.88
2023-06-10T00:15:56.458Z,96.68
2023-06-10T00:18:23.348Z,97.67
2023-06-10T00:20:50.163Z,97.21
2023-06-10T00:23:17.067Z,98.62
2023-06-10T00:25:43.877Z,98.28
2023-06-10T00:28:10.849Z,98.78
2023-06-10T00:30:37.696Z,98.85
2023-06-10T00:33:04.628Z,99.30
2023-06-10T00:35:31.548Z,99.42
2023-06-10T00:38:00.559Z,98.91
2023-06-10T00:40:27.423Z,98.58
2023-06-10T00:42:54.296Z,97.72
2023-06-10T00:45:22.104Z,99.17
2023-06-10T00:47:49.349Z,98.73
2023-06-10T00:50:16.323Z,99.11
2023-06-10T00:52:43.589Z,98.32
2023-06-10T00:55:10.803Z,98.29
2023-06-10T00:57:38.162Z,98.20
2023-06-10T01:00:05.566Z,98.71
2023-06-10T01:02:34.058Z,99.05
2023-06-10T01:05:01.628Z,98.49
2023-06-10T01:07:47.185Z,98.39
2023-06-10T01:10:25.230Z,97.98
2023-06-10T01:13:06.823Z,99.70
2023-06-10T01:15:36.080Z,100.00
2023-06-10T01:18:09.007Z,100.00
2023-06-10T01:20:37.871Z,100.00
2023-06-10T01:23:04.868Z,100.00
2023-06-10T01:25:32.015Z,100.00
2023-06-10T01:28:27.820Z,100.00
2023-06-10T01:31:04.989Z,100.00
2023-06-10T01:33:36.942Z,100.00
2023-06-10T01:36:05.179Z,100.00
2023-06-10T01:38:37.864Z,100.00
2023-06-10T01:41:04.935Z,100.00
2023-06-10T01:43:35.252Z,100.00
2023-06-10T01:46:02.224Z,100.00
2023-06-10T01:48:30.499Z,100.00
2023-06-10T01:50:57.421Z,100.00
2023-06-10T01:53:24.408Z,100.00
2023-06-10T01:55:51.368Z,100.00
2023-06-10T01:58:18.422Z,100.00
2023-06-10T02:00:45.421Z,100.00
2023-06-10T02:03:12.343Z,100.00
2023-06-10T02:05:39.410Z,100.00
2023-06-10T02:08:06.529Z,100.00
2023-06-10T02:10:33.569Z,100.00
2023-06-10T02:13:00.591Z,100.00
2023-06-10T02:15:32.003Z,100.00
2023-06-10T02:17:59.052Z,100.00
2023-06-10T02:20:26.062Z,100.00
2023-06-10T02:22:53.076Z,100.00
2023-06-10T02:25:19.878Z,100.00
2023-06-10T02:27:46.717Z,100.00
2023-06-10T02:30:14.066Z,100.00
2023-06-10T02:32:41.253Z,100.00
2023-06-10T02:35:08.497Z,100.00
2023-06-10T02:37:36.103Z,100.00
2023-06-10T02:40:03.005Z,100.00
2023-06-10T02:42:29.961Z,100.00
2023-06-10T02:44:57.313Z,100.00
2023-06-10T02:47:35.641Z,100.00
2023-06-10T02:50:02.660Z,100.00
2023-06-10T02:52:31.965Z,100.00
2023-06-10T02:54:58.891Z,100.00
2023-06-10T02:57:25.931Z,100.00
2023-06-10T02:59:53.047Z,100.00
2023-06-10T03:02:20.096Z,100.00
2023-06-10T03:04:51.396Z,100.00
2023-06-10T03:07:19.368Z,100.00
2023-06-10T03:09:47.615Z,100.00
2023-06-10T03:12:15.669Z,100.00
2023-06-10T03:14:46.552Z,100.00
2023-06-10T03:17:13.498Z,100.00
2023-06-10T03:19:43.164Z,100.00
2023-06-10T03:22:12.431Z,100.00
2023-06-10T03:24:51.545Z,100.00
2023-06-10T03:27:20.217Z,100.00
2023-06-10T03:29:51.048Z,100.00
2023-06-10T03:32:18.853Z,100.00
2023-06-10T03:34:45.818Z,100.00
2023-06-10T03:37:14.160Z,100.00
2023-06-10T03:39:42.106Z,100.00
2023-06-10T03:42:09.654Z,100.00
2023-06-10T03:44:36.600Z,100.00
2023-06-10T03:47:03.899Z,100.00
2023-06-10T03:49:31.499Z,100.00
2023-06-10T03:52:02.014Z,100.00
2023-06-10T03:54:29.958Z,100.00
2023-06-10T03:56:57.063Z,100.00
2023-06-10T03:59:23.993Z,100.00
2023-06-10T04:01:50.994Z,100.00
2023-06-10T04:04:18.003Z,100.00
2023-06-10T04:06:45.862Z,100.00
2023-06-10T04:09:13.139Z,100.00
2023-06-10T04:11:40.861Z,100.00
2023-06-10T04:14:08.669Z,100.00
2023-06-10T04:16:36.690Z,100.00
2023-06-10T04:19:04.452Z,100.00
2023-06-10T04:21:31.382Z,100.00
2023-06-10T04:23:58.496Z,100.00
2023-06-10T04:26:25.536Z,99.98
2023-06-10T04:28:53.138Z,99.99
2023-06-10T04:31:20.338Z,99.93
2023-06-10T04:33:48.119Z,100.00
2023-06-10T04:36:16.374Z,100.00
2023-06-10T04:38:43.319Z,100.00
2023-06-10T04:41:10.385Z,100.00
2023-06-10T04:43:37.935Z,100.00
2023-06-10T04:46:08.702Z,100.00
2023-06-10T04:48:36.830Z,99.84
2023-06-10T04:51:05.903Z,100.00
2023-06-10T04:53:32.937Z,99.19
2023-06-10T04:55:59.916Z,98.50
2023-06-10T04:58:26.711Z,98.59
2023-06-10T05:00:53.490Z,98.55
2023-06-10T05:03:20.566Z,98.52
2023-06-10T05:05:47.463Z,98.79
2023-06-10T05:08:14.316Z,99.09
2023-06-10T05:10:41.393Z,98.74
2023-06-10T05:13:08.300Z,99.92
2023-06-10T05:15:35.126Z,99.13
2023-06-10T05:18:02.283Z,99.03
2023-06-10T05:20:29.692Z,98.63
2023-06-10T05:22:56.546Z,98.52
2023-06-10T05:25:23.405Z,98.91
2023-06-10T05:27:50.288Z,97.27
2023-06-10T05:30:17.085Z,96.71
2023-06-10T05:32:44.009Z,96.73
2023-06-10T05:35:11.277Z,96.34
2023-06-10T05:37:38.436Z,96.54
2023-06-10T05:40:05.939Z,97.04
2023-06-10T05:42:32.841Z,97.18
2023-06-10T05:44:59.624Z,96.56
2023-06-10T05:47:26.486Z,96.03
2023-06-10T05:49:53.572Z,96.75
2023-06-10T05:52:20.511Z,96.38
2023-06-10T05:54:47.426Z,96.42
2023-06-10T05:57:14.342Z,96.19
2023-06-10T05:59:41.316Z,95.78
2023-06-10T06:02:08.354Z,95.76
2023-06-10T06:04:35.617Z,96.19
2023-06-10T06:07:02.590Z,95.99
2023-06-10T06:09:29.465Z,96.22
2023-06-10T06:11:56.345Z,95.94
2023-06-10T06:14:23.498Z,96.62
2023-06-10T06:16:50.495Z,96.26
2023-06-10T06:19:17.363Z,95.78
2023-06-10T06:21:44.221Z,95.76
2023-06-10T06:24:11.218Z,96.59
2023-06-10T06:26:38.088Z,96.28
2023-06-10T06:29:05.039Z,96.33
2023-06-10T06:31:32.642Z,95.99
2023-06-10T06:33:59.814Z,96.50
2023-06-10T06:36:26.679Z,96.13
2023-06-10T06:38:53.485Z,95.95
2023-06-10T06:41:22.518Z,95.57
2023-06-10T06:43:49.510Z,95.33
2023-06-10T06:46:24.455Z,95.42
2023-06-10T06:48:51.637Z,95.73
2023-06-10T06:51:18.609Z,95.69
2023-06-10T06:53:45.576Z,96.46
2023-06-10T06:56:15.489Z,95.97
2023-06-10T06:58:42.446Z,96.10
2023-06-10T07:01:09.726Z,96.18
2023-06-10T07:03:36.541Z,96.04
2023-06-10T07:06:03.533Z,96.58
2023-06-10T07:08:30.352Z,96.72
2023-06-10T07:10:57.265Z,96.58
2023-06-10T07:13:24.075Z,96.00
2023-06-10T07:15:50.949Z,95.88
2023-06-10T07:18:17.800Z,95.99
2023-06-10T07:20:44.731Z,95.24
2023-06-10T07:23:11.662Z,95.00
2023-06-10T07:25:38.701Z,95.52
2023-06-10T07:28:05.604Z,94.96
2023-06-10T07:30:32.468Z,94.83
2023-06-10T07:32:59.472Z,94.11
2023-06-10T07:35:26.275Z,94.23
2023-06-10T07:37:53.280Z,94.11
2023-06-10T07:40:20.156Z,94.18
2023-06-10T07:42:46.971Z,93.59
2023-06-10T07:45:13.861Z,92.57
2023-06-10T07:47:40.777Z,92.72
2023-06-10T07:50:07.978Z,93.15
2023-06-10T07:52:34.786Z,93.08
2023-06-10T07:55:01.791Z,92.53
2023-06-10T07:57:28.684Z,92.57
2023-06-10T07:59:55.465Z,92.93
2023-06-10T08:02:24.036Z,92.00
2023-06-10T08:04:53.559Z,91.58
2023-06-10T08:07:20.485Z,91.34
2023-06-10T08:09:47.321Z,91.17
2023-06-10T08:12:15.262Z,90.03
2023-06-10T08:14:44.831Z,90.10
2023-06-10T08:17:12.182Z,89.37
2023-06-10T08:19:38.973Z,89.91
2023-06-10T08:22:05.931Z,90.41
2023-06-10T08:24:32.805Z,90.05
2023-06-10T08:26:59.694Z,89.40
2023-06-10T08:29:26.518Z,89.91
2023-06-10T08:31:53.465Z,89.84
2023-06-10T08:34:20.369Z,89.38
2023-06-10T08:36:47.196Z,89.29
2023-06-10T08:39:14.053Z,89.61
2023-06-10T08:41:44.991Z,90.05
2023-06-10T08:44:23.455Z,90.62
2023-06-10T08:46:52.137Z,90.58
2023-06-10T08:49:20.346Z,89.28
2023-06-10T08:51:51.646Z,89.19
2023-06-10T08:54:28.322Z,88.86
2023-06-10T08:56:58.197Z,88.57
2023-06-10T08:59:26.472Z,88.72
2023-06-10T09:01:54.979Z,88.39
2023-06-10T09:04:22.190Z,87.44
2023-06-10T09:06:50.974Z,88.52
2023-06-10T09:09:19.047Z,89.04
2023-06-10T09:11:45.864Z,89.55
2023-06-10T09:14:13.308Z,89.16
2023-06-10T09:16:41.688Z,88.97
2023-06-10T09:19:08.770Z,87.11
2023-06-10T09:21:36.188Z,85.91
2023-06-10T09:24:03.479Z,86.24
2023-06-10T09:26:30.729Z,86.33
2023-06-10T09:29:09.112Z,86.11
2023-06-10T09:31:37.667Z,85.80
2023-06-10T09:34:11.495Z,84.86
2023-06-10T09:36:40.074Z,84.39
2023-06-10T09:39:15.692Z,83.86
2023-06-10T09:41:43.224Z,83.59
2023-06-10T09:44:19.456Z,83.80
2023-06-10T09:46:47.795Z,85.93
2023-06-10T09:49:15.109Z,84.58
2023-06-10T09:51:55.741Z,83.96
2023-06-10T09:54:23.751Z,83.43
2023-06-10T09:56:53.135Z,83.64
2023-06-10T09:59:30.515Z,82.31
2023-06-10T10:01:57.923Z,82.10
2023-06-10T10:04:26.278Z,80.99
2023-06-10T10:06:56.887Z,78.74
2023-06-10T10:09:23.788Z,79.51
2023-06-10T10:11:52.026Z,80.00
2023-06-10T10:14:21.040Z,76.81
2023-06-10T10:16:50.623Z,76.28
2023-06-10T10:19:24.507Z,78.53
2023-06-10T10:21:55.173Z,78.64
2023-06-10T10:24:24.624Z,78.20
2023-06-10T10:26:52.196Z,76.39
2023-06-10T10:29:32.857Z,79.45
2023-06-10T10:32:01.903Z,77.53
2023-06-10T10:34:46.071Z,77.80
2023-06-10T10:37:12.998Z,76.03
2023-06-10T10:39:39.911Z,75.09
2023-06-10T10:42:08.278Z,75.69
2023-06-10T10:44:35.275Z,75.00
2023-06-10T10:47:04.719Z,77.00
2023-06-10T10:49:33.367Z,74.97
2023-06-10T10:52:02.256Z,74.84
2023-06-10T10:54:30.152Z,74.67
2023-06-10T10:57:17.273Z,74.40
2023-06-10T10:59:50.646Z,73.93
2023-06-10T11:02:33.154Z,74.58
2023-06-10T11:05:02.090Z,74.64
2023-06-10T11:07:38.894Z,74.17
2023-06-10T11:10:10.969Z,73.50
2023-06-10T11:12:46.910Z,72.03
2023-06-10T11:15:14.589Z,72.78
2023-06-10T11:18:20.775Z,72.09
2023-06-10T11:20:50.680Z,72.71
2023-06-10T11:23:29.803Z,73.18
2023-06-10T11:26:16.548Z,73.66
2023-06-10T11:29:03.325Z,75.02
2023-06-10T11:31:35.107Z,72.21
2023-06-10T11:34:06.201Z,72.85
2023-06-10T11:36:43.956Z,71.45
2023-06-10T11:39:11.365Z,71.42
2023-06-10T11:41:40.322Z,70.73
2023-06-10T11:44:12.253Z,70.24
2023-06-10T11:46:39.850Z,69.05
2023-06-10T11:49:07.664Z,67.82
2023-06-10T11:51:39.995Z,67.80
2023-06-10T11:54:09.950Z,68.02
2023-06-10T11:56:37.206Z,68.70
2023-06-10T11:59:05.924Z,68.60
2023-06-10T12:01:34.783Z,69.10
2023-06-10T12:04:04.813Z,69.44
2023-06-10T12:06:51.006Z,70.00
2023-06-10T12:09:29.657Z,72.24
2023-06-10T12:12:00.888Z,70.97
2023-06-10T12:14:57.667Z,70.61
2023-06-10T12:17:33.913Z,69.70
2023-06-10T12:20:06.739Z,69.33
2023-06-10T12:22:41.229Z,68.21
2023-06-10T12:25:09.648Z,67.15
2023-06-10T12:27:37.971Z,66.46
2023-06-10T12:30:07.287Z,67.41
2023-06-10T12:32:45.034Z,67.32
2023-06-10T12:35:14.278Z,66.76
2023-06-10T12:37:43.470Z,66.14
2023-06-10T12:40:11.893Z,66.57
2023-06-10T12:42:39.220Z,66.56
2023-06-10T12:45:07.334Z,67.81
2023-06-10T12:47:36.769Z,67.64
2023-06-10T12:50:04.335Z,68.01
2023-06-10T12:52:31.608Z,67.70
2023-06-10T12:54:58.657Z,67.89
2023-06-10T12:57:25.808Z,67.86
2023-06-10T12:59:52.752Z,68.92
2023-06-10T13:02:22.820Z,69.75
2023-06-10T13:04:49.673Z,73.07
2023-06-10T13:07:20.140Z,75.54
2023-06-10T13:09:47.077Z,85.38
2023-06-10T13:12:16.776Z,86.24
2023-06-10T13:14:44.057Z,89.36
2023-06-10T13:17:10.945Z,90.79
2023-06-10T13:19:38.594Z,91.07
2023-06-10T13:22:05.461Z,93.85
2023-06-10T13:24:32.749Z,95.50
2023-06-10T13:26:59.580Z,95.64
2023-06-10T13:29:26.395Z,96.44
2023-06-10T13:31:53.322Z,97.32
2023-06-10T13:34:20.092Z,97.44
2023-06-10T13:36:46.894Z,97.37
2023-06-10T13:39:13.844Z,100.00
2023-06-10T13:41:42.073Z,97.71
2023-06-10T13:44:08.951Z,96.24
2023-06-10T13:46:35.795Z,96.27
2023-06-10T13:49:02.698Z,98.25
2023-06-10T13:51:29.511Z,98.30
2023-06-10T13:53:56.428Z,100.00
2023-06-10T13:56:23.304Z,100.00
2023-06-10T13:58:50.148Z,99.75
2023-06-10T14:01:17.039Z,99.85
2023-06-10T14:03:43.982Z,98.90
2023-06-10T14:06:11.138Z,97.88
2023-06-10T14:08:37.923Z,99.47
2023-06-10T14:11:04.958Z,99.75
2023-06-10T14:13:31.781Z,99.57
2023-06-10T14:15:58.715Z,100.00
2023-06-10T14:18:25.577Z,100.00
2023-06-10T14:20:52.397Z,100.00
2023-06-10T14:23:19.318Z,100.00
2023-06-10T14:25:48.937Z,100.00
2023-06-10T14:28:16.887Z,99.49
2023-06-10T14:30:43.747Z,100.00
2023-06-10T14:33:10.878Z,100.00
2023-06-10T14:35:37.717Z,100.00
2023-06-10T14:38:07.440Z,100.00
2023-06-10T14:40:35.477Z,100.00
2023-06-10T14:43:03.222Z,100.00
2023-06-10T14:45:29.991Z,100.00
2023-06-10T14:47:56.885Z,100.00
2023-06-10T14:50:23.882Z,100.00
2023-06-10T14:52:50.683Z,100.00
2023-06-10T14:55:17.606Z,100.00
2023-06-10T14:57:44.378Z,100.00
2023-06-10T15:00:13.655Z,100.00
2023-06-10T15:02:40.545Z,100.00
2023-06-10T15:05:32.390Z,100.00
2023-06-10T15:07:59.284Z,100.00
2023-06-10T15:10:26.294Z,100.00
2023-06-10T15:12:53.062Z,100.00
2023-06-10T15:15:19.909Z,100.00
2023-06-10T15:17:46.890Z,100.00
2023-06-10T15:20:13.788Z,100.00
2023-06-10T15:22:41.609Z,100.00
2023-06-10T15:25:29.308Z,100.00
2023-06-10T15:27:55.605Z,100.00
2023-06-10T15:30:22.501Z,100.00
2023-06-10T15:32:49.322Z,100.00
2023-06-10T15:35:16.251Z,100.00
2023-06-10T15:37:43.125Z,100.00
2023-06-10T15:40:10.188Z,100.00
2023-06-10T15:42:37.028Z,100.00
2023-06-10T15:45:04.470Z,100.00
2023-06-10T15:47:31.301Z,100.00
2023-06-10T15:49:58.223Z,96.96
2023-06-10T15:52:25.103Z,96.93
2023-06-10T15:54:51.955Z,98.27
2023-06-10T15:57:18.885Z,98.46
2023-06-10T15:59:45.829Z,97.65
2023-06-10T16:02:12.731Z,96.37
2023-06-10T16:04:39.693Z,100.00
2023-06-10T16:07:06.523Z,100.00
2023-06-10T16:09:33.412Z,100.00
2023-06-10T16:12:00.430Z,100.00
2023-06-10T16:14:27.391Z,100.00
2023-06-10T16:16:54.279Z,100.00
2023-06-10T16:19:21.115Z,100.00
2023-06-10T16:21:48.044Z,100.00
2023-06-10T16:24:14.924Z,100.00
2023-06-10T16:26:41.951Z,100.00
2023-06-10T16:29:10.061Z,100.00
2023-06-10T16:31:37.058Z,100.00
2023-06-10T16:34:03.920Z,100.00
2023-06-10T16:36:30.748Z,100.00
2023-06-10T16:38:57.665Z,100.00
2023-06-10T16:41:24.600Z,100.00
2023-06-10T16:43:51.396Z,100.00
2023-06-10T16:46:18.266Z,100.00
2023-06-10T16:48:45.822Z,100.00
2023-06-10T16:51:12.770Z,100.00
2023-06-10T16:53:39.586Z,100.00
2023-06-10T16:56:06.471Z,100.00
2023-06-10T16:58:33.376Z,100.00
2023-06-10T17:01:08.558Z,100.00
2023-06-10T17:03:36.284Z,100.00
2023-06-10T17:06:03.255Z,100.00
2023-06-10T17:08:30.248Z,100.00
2023-06-10T17:10:57.073Z,100.00
2023-06-10T17:13:24.620Z,100.00
2023-06-10T17:15:51.567Z,100.00
2023-06-10T17:18:18.451Z,100.00
2023-06-10T17:20:45.377Z,100.00
2023-06-10T17:23:12.221Z,100.00
2023-06-10T17:25:39.081Z,100.00
2023-06-10T17:28:06.852Z,100.00
2023-06-10T17:30:33.759Z,100.00
2023-06-10T17:33:00.898Z,100.00
2023-06-10T17:35:27.801Z,100.00
2023-06-10T17:37:54.735Z,100.00
2023-06-10T17:40:21.685Z,100.00
2023-06-10T17:42:48.503Z,100.00
2023-06-10T17:45:16.039Z,100.00
2023-06-10T17:47:42.905Z,100.00
2023-06-10T17:50:10.129Z,100.00
2023-06-10T17:52:36.955Z,100.00
2023-06-10T17:55:04.028Z,100.00
2023-06-10T17:57:31.013Z,100.00
2023-06-10T17:59:57.824Z,100.00
2023-06-10T18:02:24.714Z,100.00
2023-06-10T18:04:51.568Z,100.00
2023-06-10T18:07:18.382Z,100.00
2023-06-10T18:09:45.215Z,100.00
2023-06-10T18:12:12.306Z,100.00
2023-06-10T18:14:39.310Z,100.00
2023-06-10T18:17:06.316Z,100.00
2023-06-10T18:19:33.277Z,100.00
2023-06-10T18:22:00.244Z,100.00
2023-06-10T18:24:27.302Z,100.00
2023-06-10T18:26:54.232Z,100.00
2023-06-10T18:29:21.100Z,100.00
2023-06-10T18:31:48.042Z,100.00
2023-06-10T18:34:15.009Z,100.00
2023-06-10T18:36:41.891Z,100.00
2023-06-10T18:39:08.892Z,100.00
2023-06-10T18:41:35.829Z,100.00
2023-06-10T18:44:02.685Z,100.00
2023-06-10T18:46:29.711Z,100.00
2023-06-10T18:48:56.608Z,100.00
2023-06-10T18:51:23.701Z,100.00
2023-06-10T18:53:50.691Z,100.00
2023-06-10T18:56:17.637Z,100.00
2023-06-10T18:58:44.585Z,100.00
2023-06-10T19:01:11.712Z,100.00
2023-06-10T19:03:38.811Z,100.00
2023-06-10T19:06:06.269Z,100.00
2023-06-10T19:08:33.152Z,100.00
2023-06-10T19:11:00.216Z,100.00
2023-06-10T19:13:27.171Z,100.00
2023-06-10T19:15:54.601Z,100.00
2023-06-10T19:18:21.458Z,100.00
2023-06-10T19:20:48.346Z,100.00
2023-06-10T19:23:15.323Z,100.00
2023-06-10T19:25:42.296Z,100.00
2023-06-10T19:28:10.289Z,100.00
2023-06-10T19:30:37.253Z,100.00
2023-06-10T19:33:04.263Z,100.00
2023-06-10T19:35:31.189Z,100.00
2023-06-10T19:37:58.138Z,100.00
2023-06-10T19:40:25.064Z,100.00
2023-06-10T19:42:51.974Z,100.00
2023-06-10T19:45:19.377Z,100.00
2023-06-10T19:47:46.549Z,100.00
2023-06-10T19:50:14.096Z,100.00
2023-06-10T19:52:40.928Z,100.00
2023-06-10T19:55:08.388Z,100.00
2023-06-10T19:57:35.666Z,100.00
2023-06-10T20:00:04.039Z,100.00
2023-06-10T20:02:39.837Z,100.00
2023-06-10T20:05:07.272Z,100.00
2023-06-10T20:07:34.204Z,100.00
2023-06-10T20:10:01.759Z,100.00
2023-06-10T20:12:28.579Z,100.00
2023-06-10T20:14:55.546Z,100.00
2023-06-10T20:17:22.568Z,100.00
2023-06-10T20:19:49.692Z,100.00
2023-06-10T20:22:16.695Z,100.00
2023-06-10T20:24:43.554Z,100.00
2023-06-10T20:27:10.485Z,100.00
2023-06-10T20:29:37.442Z,100.00
2023-06-10T20:32:04.575Z,100.00
2023-06-10T20:34:31.578Z,100.00
2023-06-10T20:36:58.434Z,100.00
2023-06-10T20:39:26.479Z,100.00
2023-06-10T20:41:53.471Z,100.00
2023-06-10T20:44:20.395Z,100.00
2023-06-10T20:46:47.183Z,100.00
2023-06-10T20:49:15.374Z,100.00
2023-06-10T20:51:42.530Z,100.00
2023-06-10T20:54:10.119Z,100.00
2023-06-10T20:56:36.986Z,100.00
2023-06-10T20:59:03.850Z,100.00
2023-06-10T21:01:30.651Z,100.00
2023-06-10T21:03:57.718Z,100.00
2023-06-10T21:06:24.728Z,100.00
2023-06-10T21:08:51.631Z,100.00
2023-06-10T21:11:19.068Z,100.00
2023-06-10T21:13:45.861Z,100.00
2023-06-10T21:16:12.785Z,100.00
2023-06-10T21:18:39.658Z,100.00
2023-06-10T21:21:06.527Z,100.00
2023-06-10T21:23:33.473Z,100.00
2023-06-10T21:26:00.492Z,100.00
2023-06-10T21:28:27.371Z,100.00
2023-06-10T21:30:54.233Z,100.00
2023-06-10T21:33:21.146Z,100.00
2023-06-10T21:35:48.043Z,100.00
2023-06-10T21:38:14.905Z,100.00
2023-06-10T21:40:41.701Z,100.00
2023-06-10T21:43:09.372Z,100.00
2023-06-10T21:45:36.485Z,100.00
2023-06-10T21:48:03.473Z,100.00
2023-06-10T21:50:30.354Z,100.00
2023-06-10T21:52:59.500Z,100.00
2023-06-10T21:55:27.986Z,100.00
2023-06-10T21:57:54.897Z,100.00
2023-06-10T22:00:21.739Z,100.00
2023-06-10T22:02:48.884Z,100.00
2023-06-10T22:05:16.204Z,100.00
2023-06-10T22:07:43.309Z,100.00
2023-06-10T22:10:10.688Z,100.00
2023-06-10T22:12:37.457Z,100.00
2023-06-10T22:15:04.808Z,100.00
2023-06-10T22:17:31.724Z,100.00
2023-06-10T22:19:58.701Z,100.00
2023-06-10T22:22:25.580Z,100.00
2023-06-10T22:24:56.954Z,100.00
2023-06-10T22:27:24.725Z,100.00
2023-06-10T22:29:51.578Z,100.00
2023-06-10T22:32:18.460Z,100.00
2023-06-10T22:34:45.532Z,100.00
2023-06-10T22:37:12.526Z,100.00
2023-06-10T22:39:39.457Z,100.00
2023-06-10T22:42:06.801Z,100.00
2023-06-10T22:44:33.653Z,100.00
2023-06-10T22:47:00.538Z,100.00
2023-06-10T22:49:27.341Z,100.00
2023-06-10T22:51:54.254Z,100.00
2023-06-10T22:54:21.021Z,100.00
2023-06-10T22:56:47.945Z,100.00
2023-06-10T22:59:14.945Z,100.00
2023-06-10T23:01:41.992Z,100.00
2023-06-10T23:04:08.896Z,100.00
2023-06-10T23:06:35.824Z,100.00
2023-06-10T23:09:02.837Z,100.00
2023-06-10T23:11:29.667Z,100.00
2023-06-10T23:13:56.553Z,100.00
2023-06-10T23:16:23.515Z,100.00
2023-06-10T23:18:50.487Z,100.00
2023-06-10T23:21:17.431Z,100.00
2023-06-10T23:23:44.307Z,100.00
2023-06-10T23:26:12.049Z,100.00
2023-06-10T23:28:38.947Z,100.00
2023-06-10T23:31:05.756Z,100.00
2023-06-10T23:33:32.738Z,100.00
2023-06-10T23:35:59.591Z,100.00
2023-06-10T23:38:26.524Z,100.00
2023-06-10T23:40:53.410Z,100.00
2023-06-10T23:43:20.427Z,100.00
2023-06-10T23:45:47.278Z,100.00
2023-06-10T23:48:14.110Z,100.00
2023-06-10T23:50:41.710Z,100.00
2023-06-10T23:53:08.512Z,100.00
2023-06-10T23:55:35.545Z,100.00
2023-06-10T23:58:03.158Z,100.00
